Time;durP1;ratioP1;P1;durP2;ratioP2;P2;SDS_P1;SDS_P2;PMS_P1;PMS_P2;Temp;Humidity;BMP_temperature;BMP_pressure;BME280_temperature;BME280_humidity;BME280_pressure;Samples;Min_cycle;Max_cycle;Signal;HPM_P1;HPM_P2
2022/03/07 00:01:58;;;;;;;48.70;13.93;;;-0.60;89.70;;;;;;6071449;23;20618;-91
2022/03/07 00:04:23;;;;;;;21.77;13.60;;;-0.60;89.70;;;;;;6071494;23;20176;-91
2022/03/07 00:06:49;;;;;;;128.50;15.20;;;-0.70;89.80;;;;;;6073433;23;20176;-91
2022/03/07 00:09:15;;;;;;;68.77;12.03;;;-0.70;89.90;;;;;;6073494;23;20159;-91
2022/03/07 00:11:42;;;;;;;17.87;12.33;;;-0.60;90.20;;;;;;6073801;23;20160;-91
2022/03/07 00:14:08;;;;;;;19.73;12.57;;;-0.60;90.30;;;;;;6073193;23;20210;-90
2022/03/07 00:16:33;;;;;;;14.50;11.93;;;-0.60;90.30;;;;;;6073225;23;20507;-90
2022/03/07 00:18:59;;;;;;;26.53;12.67;;;-0.60;90.40;;;;;;6073594;23;20194;-90
2022/03/07 00:21:25;;;;;;;41.30;13.27;;;-0.60;90.40;;;;;;6075286;23;20559;-90
2022/03/07 00:23:51;;;;;;;16.87;12.03;;;-0.60;90.40;;;;;;6073230;23;20288;-91
2022/03/07 00:26:18;;;;;;;17.63;11.43;;;-0.60;90.30;;;;;;6072944;23;20155;-90
2022/03/07 00:28:44;;;;;;;15.30;10.73;;;-0.60;90.30;;;;;;6073041;23;20176;-91
2022/03/07 00:31:10;;;;;;;19.73;10.80;;;-0.60;90.20;;;;;;6072940;23;20161;-90
2022/03/07 00:33:36;;;;;;;14.37;9.63;;;-0.70;90.00;;;;;;6072709;23;20180;-90
2022/03/07 00:36:03;;;;;;;12.93;10.00;;;-0.70;89.90;;;;;;6073890;23;20213;-90
2022/03/07 00:38:29;;;;;;;14.60;9.87;;;-0.80;89.60;;;;;;6072670;23;20174;-90
2022/03/07 00:40:54;;;;;;;17.07;10.57;;;-0.80;89.40;;;;;;6073007;23;20161;-90
2022/03/07 00:43:21;;;;;;;14.07;10.00;;;-0.90;89.10;;;;;;6072853;23;20166;-90
2022/03/07 00:45:47;;;;;;;13.13;9.63;;;-0.90;88.90;;;;;;6074198;23;20549;-90
2022/03/07 00:48:14;;;;;;;13.37;8.73;;;-0.90;88.80;;;;;;6073186;23;20244;-91
2022/03/07 00:50:42;;;;;;;15.97;9.77;;;-1.00;88.70;;;;;;6072632;23;20160;-91
2022/03/07 00:53:17;;;;;;;22.63;9.97;;;-1.00;88.50;;;;;;6072632;23;20242;-91
2022/03/07 00:55:44;;;;;;;17.80;10.83;;;-1.00;88.40;;;;;;6072801;23;20194;-90
2022/03/07 00:58:10;;;;;;;16.33;11.20;;;-1.10;88.10;;;;;;6098540;23;20182;-90
2022/03/07 01:00:36;;;;;;;16.90;11.73;;;-1.10;87.90;;;;;;6072588;23;20162;-90
2022/03/07 01:03:05;;;;;;;18.63;12.50;;;-1.20;87.70;;;;;;6072799;23;20163;-90
2022/03/07 01:05:31;;;;;;;19.70;12.87;;;-1.20;87.40;;;;;;6098358;23;20174;-90
2022/03/07 01:07:57;;;;;;;19.10;14.67;;;-1.30;87.10;;;;;;6072672;23;20179;-90
2022/03/07 01:10:22;;;;;;;25.23;16.97;;;-1.40;86.80;;;;;;6073086;23;20197;-90
2022/03/07 01:12:48;;;;;;;111.27;21.37;;;-1.40;86.90;;;;;;6072566;23;20215;-90
2022/03/07 01:15:14;;;;;;;30.40;20.00;;;-1.40;87.00;;;;;;6072345;23;20632;-90
2022/03/07 01:17:40;;;;;;;27.37;12.53;;;-1.50;87.00;;;;;;6072791;23;20183;-90
2022/03/07 01:20:07;;;;;;;44.00;13.77;;;-1.40;87.10;;;;;;6072363;23;20256;-90
2022/03/07 01:22:33;;;;;;;44.13;20.53;;;-1.60;87.10;;;;;;6072413;23;20155;-90
2022/03/07 01:24:58;;;;;;;41.93;22.17;;;-1.60;87.30;;;;;;6072254;23;20297;-90
2022/03/07 01:27:24;;;;;;;57.47;26.80;;;-1.70;87.40;;;;;;6072392;23;20245;-90
2022/03/07 01:29:49;;;;;;;61.03;29.03;;;-1.60;87.50;;;;;;6098134;23;20663;-89
2022/03/07 01:32:15;;;;;;;126.60;33.33;;;-1.70;87.50;;;;;;6072673;23;20162;-90
2022/03/07 01:34:41;;;;;;;127.60;36.13;;;-1.80;87.50;;;;;;6072152;23;20222;-90
2022/03/07 01:37:07;;;;;;;83.10;36.77;;;-1.80;87.50;;;;;;6072624;23;20555;-90
2022/03/07 01:39:32;;;;;;;81.20;37.87;;;-1.90;87.70;;;;;;6072205;23;20193;-90
2022/03/07 01:41:58;;;;;;;72.03;34.83;;;-2.00;87.80;;;;;;6072373;23;20280;-91
2022/03/07 01:44:28;;;;;;;92.23;21.50;;;-2.00;87.90;;;;;;6072066;23;20178;-90
2022/03/07 01:46:55;;;;;;;123.30;19.57;;;-2.10;87.90;;;;;;6072137;23;20169;-90
2022/03/07 01:49:20;;;;;;;87.73;18.47;;;-2.30;87.80;;;;;;6071995;23;20162;-90
2022/03/07 01:51:47;;;;;;;57.90;18.57;;;-2.40;88.00;;;;;;6072047;23;20162;-91
2022/03/07 01:54:15;;;;;;;26.17;17.90;;;-2.50;88.20;;;;;;6071935;23;20206;-90
2022/03/07 01:56:45;;;;;;;24.93;18.50;;;-2.40;88.30;;;;;;6072036;23;20513;-91
2022/03/07 01:59:12;;;;;;;26.97;17.37;;;-2.40;88.40;;;;;;6072316;23;20630;-90
2022/03/07 02:01:39;;;;;;;34.60;18.03;;;-2.30;88.40;;;;;;6072176;23;20161;-90
2022/03/07 02:04:05;;;;;;;78.63;19.03;;;-2.30;88.40;;;;;;6072107;23;20189;-90
2022/03/07 02:06:31;;;;;;;97.80;19.63;;;-2.30;88.40;;;;;;6072010;23;20596;-90
2022/03/07 02:08:58;;;;;;;77.70;17.23;;;-2.40;88.40;;;;;;6097558;23;20186;-90
2022/03/07 02:11:26;;;;;;;46.90;14.83;;;-2.50;88.40;;;;;;6072081;23;20352;-90
2022/03/07 02:13:53;;;;;;;53.83;15.83;;;-2.50;89.00;;;;;;6071679;23;20635;-90
2022/03/07 02:16:20;;;;;;;22.00;14.83;;;-2.50;89.20;;;;;;6072375;23;20159;-90
2022/03/07 02:18:46;;;;;;;38.77;15.73;;;-2.60;89.40;;;;;;6071801;23;20194;-90
2022/03/07 02:21:15;;;;;;;40.73;17.13;;;-2.60;89.60;;;;;;6071725;23;20240;-90
2022/03/07 02:23:42;;;;;;;71.37;20.97;;;-2.60;89.80;;;;;;6071570;23;20262;-90
2022/03/07 02:26:09;;;;;;;57.73;19.03;;;-2.60;89.90;;;;;;6071709;23;20604;-90
2022/03/07 02:28:36;;;;;;;63.13;15.43;;;-2.60;90.00;;;;;;6071350;23;20629;-90
2022/03/07 02:31:01;;;;;;;46.40;14.63;;;-2.60;90.00;;;;;;6071718;23;20170;-90
2022/03/07 02:33:27;;;;;;;43.63;14.43;;;-2.60;90.00;;;;;;6071700;23;20321;-90
2022/03/07 02:35:52;;;;;;;51.87;13.33;;;-2.60;90.00;;;;;;6071679;23;20162;-90
2022/03/07 02:38:18;;;;;;;45.60;11.00;;;-2.60;90.20;;;;;;6071598;23;20191;-90
2022/03/07 02:40:46;;;;;;;29.53;11.60;;;-2.60;90.40;;;;;;6071900;23;20245;-90
2022/03/07 02:43:11;;;;;;;37.23;10.63;;;-2.60;90.60;;;;;;6071575;23;20160;-90
2022/03/07 02:45:37;;;;;;;51.10;10.60;;;-2.60;90.70;;;;;;6071470;23;20181;-89
2022/03/07 02:48:03;;;;;;;63.97;10.90;;;-2.60;91.00;;;;;;6071661;23;20562;-90
2022/03/07 02:50:29;;;;;;;86.07;12.07;;;-2.60;91.20;;;;;;6072138;23;20168;-90
2022/03/07 02:52:56;;;;;;;54.00;12.63;;;-2.60;91.30;;;;;;6071524;23;20256;-90
2022/03/07 02:55:22;;;;;;;68.53;11.83;;;-2.60;91.50;;;;;;6071387;23;20185;-90
2022/03/07 02:57:48;;;;;;;51.53;12.77;;;-2.60;91.60;;;;;;6096854;23;20199;-90
2022/03/07 03:00:13;;;;;;;17.10;12.87;;;-2.60;91.70;;;;;;6071506;23;20165;-89
2022/03/07 03:02:39;;;;;;;36.77;11.17;;;-2.60;91.80;;;;;;6071512;23;20609;-90
2022/03/07 03:05:05;;;;;;;91.03;12.77;;;-2.40;91.80;;;;;;6071428;23;20292;-89
2022/03/07 03:07:31;;;;;;;53.27;11.53;;;-2.50;91.70;;;;;;6071353;23;20172;-90
2022/03/07 03:09:56;;;;;;;35.47;12.07;;;-2.60;91.70;;;;;;6096965;23;20160;-90
2022/03/07 03:12:24;;;;;;;95.43;13.03;;;-2.60;91.80;;;;;;6097045;23;20156;-90
2022/03/07 03:14:50;;;;;;;62.07;11.50;;;-2.60;91.80;;;;;;6071325;23;20183;-90
2022/03/07 03:17:16;;;;;;;15.10;12.97;;;-2.60;91.70;;;;;;6071215;23;20161;-90
2022/03/07 03:19:42;;;;;;;14.80;12.37;;;-2.50;91.80;;;;;;6071330;23;20212;-90
2022/03/07 03:22:07;;;;;;;14.37;12.27;;;-2.40;91.90;;;;;;6071404;23;20158;-90
2022/03/07 03:24:33;;;;;;;16.30;13.27;;;-2.40;91.90;;;;;;6071475;23;20625;-90
2022/03/07 03:26:59;;;;;;;15.90;12.53;;;-2.40;91.80;;;;;;6071448;23;20194;-90
2022/03/07 03:29:24;;;;;;;29.17;17.53;;;-2.40;91.70;;;;;;6071356;23;20602;-90
2022/03/07 03:31:50;;;;;;;22.77;17.77;;;-2.50;91.60;;;;;;6071352;23;20234;-89
2022/03/07 03:34:16;;;;;;;25.73;18.03;;;-2.50;91.60;;;;;;6071387;23;20207;-90
2022/03/07 03:36:42;;;;;;;27.30;18.90;;;-2.40;91.50;;;;;;6071221;23;20216;-90
2022/03/07 03:39:07;;;;;;;37.90;20.00;;;-2.40;91.40;;;;;;6071198;23;20638;-90
2022/03/07 03:41:33;;;;;;;44.17;19.53;;;-2.60;91.10;;;;;;6073165;23;20193;-90
2022/03/07 03:43:58;;;;;;;60.47;18.43;;;-2.90;90.80;;;;;;6073081;23;20262;-90
2022/03/07 03:46:24;;;;;;;58.70;19.27;;;-3.10;90.60;;;;;;6073304;23;20563;-89
2022/03/07 03:48:49;;;;;;;56.00;17.60;;;-3.30;90.50;;;;;;6073157;23;20535;-89
2022/03/07 03:51:15;;;;;;;59.00;18.40;;;-3.40;90.40;;;;;;6073343;23;20178;-89
2022/03/07 03:53:40;;;;;;;58.40;17.90;;;-3.60;90.60;;;;;;6073106;23;20176;-90
2022/03/07 03:56:06;;;;;;;70.23;18.13;;;-3.60;90.70;;;;;;6098995;23;20161;-90
2022/03/07 03:58:31;;;;;;;30.53;17.23;;;-3.60;90.80;;;;;;6073438;23;20198;-90
2022/03/07 04:00:57;;;;;;;51.00;18.10;;;-3.60;90.90;;;;;;6074163;23;20237;-90
2022/03/07 04:03:23;;;;;;;34.90;16.80;;;-3.60;91.10;;;;;;6072792;23;20151;-90
2022/03/07 04:05:49;;;;;;;51.03;17.97;;;-3.60;91.10;;;;;;6072927;23;20191;-90
2022/03/07 04:08:14;;;;;;;38.87;17.77;;;-3.60;91.10;;;;;;6072738;23;20178;-89
2022/03/07 04:10:40;;;;;;;36.23;17.70;;;-3.60;91.20;;;;;;6072943;23;20162;-89
2022/03/07 04:13:05;;;;;;;29.27;18.37;;;-3.60;91.30;;;;;;6072984;23;20160;-90
2022/03/07 04:15:31;;;;;;;30.10;18.73;;;-3.60;91.30;;;;;;6072896;23;20262;-89
2022/03/07 04:17:56;;;;;;;28.77;18.53;;;-3.60;91.30;;;;;;6072788;23;20230;-90
2022/03/07 04:20:22;;;;;;;28.13;19.70;;;-3.60;91.40;;;;;;6072856;23;20177;-89
2022/03/07 04:22:48;;;;;;;32.50;21.33;;;-3.50;91.50;;;;;;6072929;23;20158;-90
2022/03/07 04:25:13;;;;;;;37.97;22.77;;;-3.40;91.50;;;;;;6072874;23;20222;-90
2022/03/07 04:27:39;;;;;;;25.37;17.47;;;-3.40;91.50;;;;;;6073207;23;20158;-90
2022/03/07 04:30:08;;;;;;;21.47;16.63;;;-3.40;91.30;;;;;;6072690;23;20171;-90
2022/03/07 04:32:36;;;;;;;27.53;18.83;;;-3.40;91.20;;;;;;6073107;23;20174;-90
2022/03/07 04:35:06;;;;;;;33.70;21.13;;;-3.50;91.10;;;;;;6072490;23;20678;-90
2022/03/07 04:37:33;;;;;;;32.13;19.50;;;-3.50;91.10;;;;;;6072888;23;20163;-90
2022/03/07 04:39:59;;;;;;;35.10;19.03;;;-3.50;91.00;;;;;;6072667;23;20216;-90
2022/03/07 04:42:25;;;;;;;28.87;17.43;;;-3.40;91.00;;;;;;6072574;23;20167;-90
2022/03/07 04:44:50;;;;;;;27.00;17.43;;;-3.40;91.00;;;;;;6072587;23;20175;-90
2022/03/07 04:47:16;;;;;;;27.80;16.40;;;-3.40;90.80;;;;;;6072615;23;20163;-90
2022/03/07 04:49:42;;;;;;;25.73;17.67;;;-3.50;90.70;;;;;;6072980;23;20164;-90
2022/03/07 04:52:07;;;;;;;27.37;17.27;;;-3.50;90.70;;;;;;6072503;23;20159;-91
2022/03/07 04:54:33;;;;;;;29.30;15.63;;;-3.40;90.70;;;;;;6072734;23;20578;-90
2022/03/07 04:56:59;;;;;;;23.57;16.10;;;-3.50;90.60;;;;;;6072626;23;20165;-91
2022/03/07 04:59:24;;;;;;;21.37;15.10;;;-3.40;90.50;;;;;;6072516;23;20217;-91
2022/03/07 05:01:50;;;;;;;24.20;15.47;;;-3.40;90.40;;;;;;6072684;23;20157;-91
2022/03/07 05:04:15;;;;;;;25.03;15.20;;;-3.40;90.20;;;;;;6072577;23;20176;-91
2022/03/07 05:06:41;;;;;;;23.50;13.33;;;-3.30;90.20;;;;;;6072559;23;20159;-91
2022/03/07 05:09:06;;;;;;;24.73;14.73;;;-3.40;90.20;;;;;;6072460;23;20214;-91
2022/03/07 05:11:32;;;;;;;20.07;13.97;;;-3.40;90.10;;;;;;6072450;23;20160;-90
2022/03/07 05:13:57;;;;;;;20.47;13.73;;;-3.40;90.10;;;;;;6073353;23;20571;-91
2022/03/07 05:16:23;;;;;;;24.67;13.67;;;-3.50;90.00;;;;;;6097979;23;20176;-88
2022/03/07 05:18:49;;;;;;;21.20;13.63;;;-3.50;90.00;;;;;;6098447;23;20180;-91
2022/03/07 05:21:15;;;;;;;25.43;14.37;;;-3.50;89.90;;;;;;6072219;23;20161;-91
2022/03/07 05:23:40;;;;;;;24.00;15.33;;;-3.40;89.90;;;;;;6072615;23;20720;-90
2022/03/07 05:26:08;;;;;;;25.53;14.77;;;-3.40;89.90;;;;;;6098103;23;20152;-91
2022/03/07 05:28:34;;;;;;;21.70;13.93;;;-3.40;89.90;;;;;;6072592;23;20503;-91
2022/03/07 05:31:03;;;;;;;20.07;14.03;;;-3.40;89.80;;;;;;6072261;23;20161;-91
2022/03/07 05:33:28;;;;;;;23.70;14.30;;;-3.50;89.70;;;;;;6072017;23;20191;-91
2022/03/07 05:35:54;;;;;;;19.60;14.73;;;-3.50;89.60;;;;;;6072099;23;20226;-91
2022/03/07 05:38:20;;;;;;;20.17;14.43;;;-3.50;89.30;;;;;;6072261;23;20715;-91
2022/03/07 05:40:46;;;;;;;19.50;13.90;;;-3.50;89.10;;;;;;6071978;23;20159;-90
2022/03/07 05:43:13;;;;;;;18.97;14.90;;;-3.60;88.90;;;;;;6072123;23;20626;-91
2022/03/07 05:45:38;;;;;;;19.77;15.27;;;-3.70;88.80;;;;;;6071996;23;20183;-91
2022/03/07 05:48:04;;;;;;;25.43;17.10;;;-3.70;88.80;;;;;;6071920;23;20298;-91
2022/03/07 05:50:30;;;;;;;35.57;19.67;;;-3.60;88.90;;;;;;6072001;23;20187;-91
2022/03/07 05:52:55;;;;;;;22.67;16.30;;;-3.60;88.90;;;;;;6072458;23;20171;-90
2022/03/07 05:55:21;;;;;;;22.20;16.00;;;-3.70;88.70;;;;;;6072020;23;20180;-90
2022/03/07 05:57:47;;;;;;;19.50;15.13;;;-3.60;88.70;;;;;;6073111;23;20653;-90
2022/03/07 06:00:13;;;;;;;20.20;14.63;;;-3.70;88.70;;;;;;6071897;23;20606;-90
2022/03/07 06:02:39;;;;;;;18.03;14.47;;;-3.70;88.80;;;;;;6071620;23;20151;-90
2022/03/07 06:05:05;;;;;;;20.67;14.27;;;-3.70;88.90;;;;;;6072433;23;20178;-90
2022/03/07 06:07:31;;;;;;;16.23;13.93;;;-3.70;89.00;;;;;;6072300;23;20185;-90
2022/03/07 06:09:57;;;;;;;18.43;15.07;;;-3.60;89.10;;;;;;6071947;23;20158;-89
2022/03/07 06:12:23;;;;;;;20.30;15.17;;;-3.60;89.10;;;;;;6071769;23;20159;-89
2022/03/07 06:14:48;;;;;;;19.37;15.70;;;-3.60;89.00;;;;;;6097187;23;20166;-89
2022/03/07 06:17:14;;;;;;;20.27;15.07;;;-3.60;89.10;;;;;;6071956;23;20186;-89
2022/03/07 06:19:39;;;;;;;19.50;15.90;;;-3.50;89.10;;;;;;6071793;23;20269;-90
2022/03/07 06:22:05;;;;;;;18.23;15.23;;;-3.60;89.10;;;;;;6071847;23;20151;-90
2022/03/07 06:24:30;;;;;;;19.87;15.03;;;-3.50;89.20;;;;;;6072089;23;20177;-89
2022/03/07 06:26:57;;;;;;;20.93;15.87;;;-3.50;89.20;;;;;;6071705;23;20256;-89
2022/03/07 06:29:23;;;;;;;17.00;13.80;;;-3.40;89.20;;;;;;6071867;23;20214;-90
2022/03/07 06:31:49;;;;;;;17.00;14.17;;;-3.40;89.20;;;;;;6073120;23;20595;-89
2022/03/07 06:34:15;;;;;;;17.10;13.60;;;-3.40;89.20;;;;;;6071551;23;20525;-89
2022/03/07 06:36:40;;;;;;;21.30;14.03;;;-3.30;89.10;;;;;;6071701;23;20155;-88
2022/03/07 06:39:06;;;;;;;19.03;13.90;;;-3.40;89.00;;;;;;6072091;23;20187;-89
2022/03/07 06:41:32;;;;;;;17.20;14.23;;;-3.40;89.00;;;;;;6071781;23;20213;-88
2022/03/07 06:43:59;;;;;;;20.93;16.47;;;-3.50;88.90;;;;;;6097428;23;20559;-89
2022/03/07 06:46:25;;;;;;;24.73;16.43;;;-3.30;89.20;;;;;;6072022;23;20158;-90
2022/03/07 06:48:51;;;;;;;22.47;16.30;;;-3.20;89.40;;;;;;6097345;23;20211;-89
2022/03/07 06:51:18;;;;;;;22.83;17.30;;;-3.20;89.60;;;;;;6071693;23;20167;-89
2022/03/07 06:53:44;;;;;;;23.07;17.17;;;-3.10;89.70;;;;;;6071378;23;20557;-89
2022/03/07 06:56:10;;;;;;;25.63;17.63;;;-3.10;89.80;;;;;;6071534;23;20162;-90
2022/03/07 06:58:35;;;;;;;27.37;17.80;;;-3.00;89.90;;;;;;6071822;23;20304;-90
2022/03/07 07:01:01;;;;;;;27.70;16.73;;;-2.90;90.00;;;;;;6072506;23;20655;-89
2022/03/07 07:03:26;;;;;;;20.97;15.97;;;-2.90;90.10;;;;;;6072318;23;20156;-89
2022/03/07 07:05:52;;;;;;;20.67;15.97;;;-2.90;90.00;;;;;;6071474;23;20550;-90
2022/03/07 07:08:18;;;;;;;23.57;16.93;;;-2.90;90.00;;;;;;6071600;23;20234;-90
2022/03/07 07:10:44;;;;;;;26.40;18.50;;;-2.90;90.10;;;;;;6071495;23;20222;-89
2022/03/07 07:13:14;;;;;;;28.00;19.47;;;-2.60;90.40;;;;;;6071410;23;20187;-89
2022/03/07 07:15:42;;;;;;;32.80;20.70;;;-2.20;90.90;;;;;;6072891;23;20639;-89
2022/03/07 07:18:08;;;;;;;29.37;21.63;;;-2.10;91.10;;;;;;6073314;23;20183;-89
2022/03/07 07:20:34;;;;;;;31.53;21.40;;;-2.10;91.30;;;;;;6073650;23;20164;-89
2022/03/07 07:22:59;;;;;;;30.30;21.70;;;-2.00;91.40;;;;;;6073328;23;20162;-90
2022/03/07 07:25:25;;;;;;;36.63;23.00;;;-2.10;91.40;;;;;;6073251;23;20179;-90
2022/03/07 07:27:50;;;;;;;33.00;23.47;;;-2.10;91.50;;;;;;6073442;23;20187;-90
2022/03/07 07:30:16;;;;;;;35.27;23.73;;;-1.80;91.90;;;;;;6073343;23;20595;-89
2022/03/07 07:32:41;;;;;;;32.40;23.80;;;-1.60;92.00;;;;;;6074067;23;20163;-89
2022/03/07 07:35:08;;;;;;;33.67;24.43;;;-1.40;92.20;;;;;;6074422;23;20183;-89
2022/03/07 07:37:34;;;;;;;37.40;24.97;;;-1.40;92.30;;;;;;6099623;23;20152;-90
2022/03/07 07:40:00;;;;;;;32.37;25.13;;;-1.30;92.50;;;;;;6074381;23;20242;-90
2022/03/07 07:42:26;;;;;;;35.67;26.77;;;-1.10;92.60;;;;;;6074412;23;20252;-89
2022/03/07 07:44:51;;;;;;;31.70;24.67;;;-1.10;92.60;;;;;;6073323;23;20175;-88
2022/03/07 07:47:17;;;;;;;34.83;23.30;;;-1.30;92.50;;;;;;6072956;23;20159;-90
2022/03/07 07:49:43;;;;;;;27.90;21.50;;;-1.40;92.50;;;;;;6074148;23;20243;-90
2022/03/07 07:52:09;;;;;;;27.20;21.77;;;-1.30;92.60;;;;;;6073724;23;20185;-91
2022/03/07 07:54:34;;;;;;;33.70;23.37;;;-1.40;92.60;;;;;;6073532;23;20263;-88
2022/03/07 07:57:02;;;;;;;33.67;24.20;;;-1.30;92.70;;;;;;6073264;23;20168;-87
2022/03/07 07:59:27;;;;;;;33.73;25.53;;;-1.20;92.70;;;;;;6098520;23;20175;-88
2022/03/07 08:01:53;;;;;;;34.37;26.17;;;-1.00;92.80;;;;;;6074352;23;20183;-90
2022/03/07 08:04:18;;;;;;;32.53;23.50;;;-0.90;92.80;;;;;;6073903;23;20177;-89
2022/03/07 08:06:44;;;;;;;32.57;24.73;;;-0.90;92.70;;;;;;6073201;23;20241;-89
2022/03/07 08:09:10;;;;;;;32.83;25.50;;;-0.80;92.80;;;;;;6072981;23;20182;-90
2022/03/07 08:11:35;;;;;;;25.53;22.10;;;-0.70;92.80;;;;;;6074702;23;20607;-90
2022/03/07 08:14:01;;;;;;;31.13;24.80;;;-0.50;92.90;;;;;;6073735;23;20185;-90
2022/03/07 08:16:26;;;;;;;37.77;26.83;;;-0.50;92.90;;;;;;6074623;23;20477;-90
2022/03/07 08:18:52;;;;;;;31.13;20.93;;;-0.50;92.80;;;;;;6099429;23;20551;-91
2022/03/07 08:21:21;;;;;;;28.40;19.67;;;-0.40;92.80;;;;;;6074298;23;20246;-92
2022/03/07 08:23:47;;;;;;;23.80;18.83;;;-0.40;92.80;;;;;;6074653;23;20212;-91
2022/03/07 08:26:12;;;;;;;25.10;18.90;;;-0.30;92.80;;;;;;6072678;23;20161;-90
2022/03/07 08:28:38;;;;;;;21.93;18.53;;;-0.10;92.80;;;;;;6073113;23;20496;-90
2022/03/07 08:31:03;;;;;;;22.80;19.53;;;0.00;92.90;;;;;;6073064;23;20159;-91
2022/03/07 08:33:31;;;;;;;40.30;24.43;;;0.00;92.70;;;;;;6072768;23;20190;-91
2022/03/07 08:35:58;;;;;;;24.47;21.00;;;0.20;92.80;;;;;;6073111;23;20183;-89
2022/03/07 08:38:23;;;;;;;28.00;22.33;;;0.40;92.70;;;;;;6073286;23;20186;-91
2022/03/07 08:40:49;;;;;;;40.73;31.33;;;0.40;92.60;;;;;;6072812;23;20152;-91
2022/03/07 08:43:14;;;;;;;22.53;17.83;;;0.50;92.60;;;;;;6073172;23;20161;-91
2022/03/07 08:45:40;;;;;;;24.77;18.43;;;0.60;92.60;;;;;;6072642;23;20177;-91
2022/03/07 08:48:05;;;;;;;19.77;17.67;;;0.80;92.70;;;;;;6072788;23;20593;-92
2022/03/07 08:50:31;;;;;;;20.47;17.43;;;0.90;92.60;;;;;;6073728;23;20165;-91
2022/03/07 08:52:56;;;;;;;15.17;12.67;;;1.10;92.50;;;;;;6072754;23;20185;-91
2022/03/07 08:55:22;;;;;;;19.13;12.63;;;1.20;92.30;;;;;;6072556;23;20200;-91
2022/03/07 08:57:48;;;;;;;17.90;12.40;;;1.20;92.10;;;;;;6072694;23;20212;-90
2022/03/07 09:00:14;;;;;;;12.77;10.63;;;1.30;91.90;;;;;;6072648;23;20159;-91
2022/03/07 09:02:39;;;;;;;16.27;12.23;;;1.50;91.60;;;;;;6072645;23;20167;-90
2022/03/07 09:05:05;;;;;;;28.57;19.33;;;1.70;91.10;;;;;;6072513;23;20182;-91
2022/03/07 09:07:31;;;;;;;15.40;11.67;;;1.80;90.40;;;;;;6072752;23;20203;-92
2022/03/07 09:09:58;;;;;;;12.90;9.20;;;2.00;89.70;;;;;;6072598;23;20157;-91
2022/03/07 09:12:27;;;;;;;12.27;8.77;;;2.10;89.10;;;;;;6072988;23;20492;-87
2022/03/07 09:14:56;;;;;;;11.10;8.27;;;2.20;88.30;;;;;;6073001;23;20200;-89
2022/03/07 09:17:21;;;;;;;11.97;9.00;;;2.40;87.80;;;;;;6072412;23;20185;-89
2022/03/07 09:19:47;;;;;;;11.20;8.27;;;2.40;86.90;;;;;;6072391;23;20634;-91
2022/03/07 09:22:12;;;;;;;8.80;7.90;;;2.60;86.40;;;;;;6073889;23;20153;-90
2022/03/07 09:24:38;;;;;;;10.20;7.63;;;2.80;86.60;;;;;;6072563;23;20174;-89
2022/03/07 09:27:03;;;;;;;8.67;7.40;;;2.80;86.90;;;;;;6072369;23;20245;-90
2022/03/07 09:29:30;;;;;;;11.17;7.83;;;2.80;86.00;;;;;;6072215;23;20155;-90
2022/03/07 09:31:56;;;;;;;9.23;8.00;;;2.90;85.20;;;;;;6072486;23;20174;-91
2022/03/07 09:34:21;;;;;;;8.13;6.67;;;3.00;84.60;;;;;;6079934;23;20228;-90
2022/03/07 09:36:47;;;;;;;12.27;7.57;;;3.20;84.70;;;;;;6073644;23;20619;-90
2022/03/07 09:39:13;;;;;;;10.53;6.63;;;3.30;83.70;;;;;;6072541;23;20182;-92
2022/03/07 09:41:42;;;;;;;12.70;7.10;;;3.50;83.20;;;;;;6072954;23;20166;-91
2022/03/07 09:44:07;;;;;;;9.97;7.13;;;3.50;82.80;;;;;;6072271;23;20209;-93
2022/03/07 09:46:33;;;;;;;13.90;9.37;;;3.60;82.30;;;;;;6072567;23;20151;-92
2022/03/07 09:48:58;;;;;;;11.37;7.70;;;3.70;81.20;;;;;;6072454;23;20206;-92
2022/03/07 09:51:24;;;;;;;12.93;7.10;;;3.90;81.10;;;;;;6073853;23;20170;-92
2022/03/07 09:53:52;;;;;;;9.73;7.30;;;4.00;79.90;;;;;;6074095;23;20210;-92
2022/03/07 09:56:18;;;;;;;14.40;9.60;;;4.00;79.30;;;;;;6073337;23;20214;-92
2022/03/07 09:58:45;;;;;;;10.87;7.73;;;4.20;80.00;;;;;;6098116;23;20178;-92
2022/03/07 10:01:14;;;;;;;11.57;7.53;;;4.40;79.50;;;;;;6072597;23;20600;-91
2022/03/07 10:03:40;;;;;;;8.60;5.40;;;4.40;78.50;;;;;;6073115;23;20174;-92
2022/03/07 10:06:17;;;;;;;10.97;6.27;;;4.60;78.40;;;;;;6072183;23;20159;-89
2022/03/07 10:08:54;;;;;;;19.03;5.90;;;4.70;78.30;;;;;;6071798;23;20170;-89
2022/03/07 10:11:19;;;;;;;12.57;6.67;;;5.00;77.80;;;;;;6072390;23;20164;-89
2022/03/07 10:13:53;;;;;;;7.73;5.47;;;5.00;76.70;;;;;;6071765;23;20654;-89
2022/03/07 10:16:20;;;;;;;10.13;5.70;;;5.10;76.70;;;;;;6071877;23;20239;-89
2022/03/07 10:18:51;;;;;;;14.30;6.03;;;5.20;76.00;;;;;;6071910;23;20263;-90
2022/03/07 10:21:25;;;;;;;29.07;16.17;;;5.30;75.00;;;;;;6071922;23;20204;-91
2022/03/07 10:23:56;;;;;;;23.40;13.67;;;5.50;76.40;;;;;;6071968;23;20184;-91
2022/03/07 10:26:22;;;;;;;9.40;5.83;;;5.90;77.30;;;;;;6072387;23;20158;-91
2022/03/07 10:28:57;;;;;;;7.63;6.83;;;5.70;73.50;;;;;;6071967;23;20630;-92
2022/03/07 10:31:24;;;;;;;12.10;6.80;;;5.80;73.60;;;;;;6072609;23;20590;-91
2022/03/07 10:34:19;;;;;;;7.87;6.10;;;6.00;74.50;;;;;;6071799;23;20186;-91
2022/03/07 10:36:46;;;;;;;15.03;6.07;;;6.20;74.20;;;;;;6048193;23;20170;-91
2022/03/07 10:39:15;;;;;;;12.33;5.70;;;6.10;71.80;;;;;;6072043;23;20183;-91
2022/03/07 10:41:43;;;;;;;8.67;6.37;;;6.20;72.80;;;;;;6071828;23;20193;-91
2022/03/07 10:44:28;;;;;;;12.97;6.37;;;6.30;72.90;;;;;;6072053;23;20615;-92
2022/03/07 10:47:08;;;;;;;7.83;4.77;;;6.60;73.50;;;;;;6072612;23;20162;-91
2022/03/07 10:49:34;;;;;;;33.63;7.00;;;6.50;69.50;;;;;;6098805;23;20474;-91
2022/03/07 10:52:03;;;;;;;9.40;5.30;;;6.60;69.40;;;;;;6072636;23;20158;-91
2022/03/07 10:54:29;;;;;;;12.10;7.33;;;6.80;68.00;;;;;;6073015;23;20215;-91
2022/03/07 10:56:55;;;;;;;5.30;4.17;;;6.90;67.10;;;;;;6072325;23;20163;-92
2022/03/07 10:59:28;;;;;;;5.33;4.10;;;7.00;66.60;;;;;;6071850;23;20217;-91
2022/03/07 11:02:11;;;;;;;6.00;3.93;;;7.00;66.00;;;;;;6072081;23;20159;-92
2022/03/07 11:04:38;;;;;;;4.90;4.07;;;6.90;64.40;;;;;;6072707;23;20209;-91
2022/03/07 11:07:05;;;;;;;11.80;4.40;;;7.00;64.30;;;;;;6071632;23;20169;-91
2022/03/07 11:09:31;;;;;;;5.90;3.77;;;7.00;63.80;;;;;;6071626;23;20229;-91
2022/03/07 11:11:57;;;;;;;5.63;3.87;;;7.20;63.80;;;;;;6071732;23;20620;-91
2022/03/07 11:14:27;;;;;;;4.37;3.40;;;7.30;63.30;;;;;;6098174;23;20250;-91
2022/03/07 11:16:56;;;;;;;3.13;2.70;;;7.40;59.40;;;;;;6072933;23;20218;-92
2022/03/07 11:19:23;;;;;;;6.73;4.00;;;7.50;58.30;;;;;;6072581;23;20527;-91
2022/03/07 11:21:51;;;;;;;3.33;2.57;;;7.50;59.80;;;;;;6072752;23;20155;-92
2022/03/07 11:24:19;;;;;;;5.00;2.50;;;7.50;58.90;;;;;;6073055;23;20174;-92
2022/03/07 11:26:46;;;;;;;4.57;2.30;;;7.70;55.30;;;;;;6073612;23;20159;-92
2022/03/07 11:29:12;;;;;;;3.97;3.17;;;7.70;56.30;;;;;;6072283;23;20155;-91
2022/03/07 11:31:39;;;;;;;3.33;2.23;;;7.80;55.50;;;;;;6097312;23;20229;-89
2022/03/07 11:34:09;;;;;;;3.63;2.63;;;7.80;53.70;;;;;;6071260;23;20193;-91
2022/03/07 11:36:48;;;;;;;4.30;2.90;;;8.00;53.40;;;;;;6072963;23;20169;-92
2022/03/07 11:39:14;;;;;;;5.53;3.13;;;8.00;55.30;;;;;;6072524;23;20209;-90
2022/03/07 11:41:40;;;;;;;3.93;3.13;;;8.00;56.50;;;;;;6071994;23;20502;-92
2022/03/07 11:44:13;;;;;;;4.40;3.10;;;8.30;57.00;;;;;;6081014;23;20255;-92
2022/03/07 11:46:47;;;;;;;4.90;3.17;;;8.50;55.50;;;;;;6095068;23;20167;-93
2022/03/07 11:49:31;;;;;;;6.67;3.60;;;8.60;53.90;;;;;;6090720;23;20210;-92
2022/03/07 11:52:09;;;;;;;5.33;3.90;;;8.50;53.70;;;;;;6095404;23;20179;-93
2022/03/07 11:54:49;;;;;;;7.67;3.33;;;8.50;54.40;;;;;;6097426;23;20174;-93
2022/03/07 11:57:15;;;;;;;5.13;3.47;;;8.50;54.00;;;;;;6096230;23;20146;-92
2022/03/07 11:59:44;;;;;;;3.13;2.83;;;8.70;54.70;;;;;;6089481;23;20238;-92
2022/03/07 12:02:13;;;;;;;7.60;3.00;;;8.60;54.10;;;;;;6091691;23;20599;-92
2022/03/07 12:04:46;;;;;;;10.47;3.33;;;8.70;53.20;;;;;;6090949;23;20514;-93
2022/03/07 12:07:32;;;;;;;9.47;3.37;;;8.60;54.40;;;;;;6096302;23;20197;-92
2022/03/07 12:10:10;;;;;;;4.43;3.57;;;8.70;52.80;;;;;;6096120;23;20142;-92
2022/03/07 12:12:36;;;;;;;8.53;3.63;;;8.50;52.50;;;;;;6097033;23;20202;-93
2022/03/07 12:15:13;;;;;;;4.60;3.47;;;8.60;53.90;;;;;;6094677;23;20178;-91
2022/03/07 12:17:39;;;;;;;3.90;3.00;;;8.90;54.10;;;;;;6092507;23;20170;-93
2022/03/07 12:20:06;;;;;;;7.67;3.67;;;8.90;51.90;;;;;;6084740;23;20599;-93
2022/03/07 12:22:35;;;;;;;4.40;3.10;;;8.90;51.20;;;;;;6088288;23;20155;-92
2022/03/07 12:25:07;;;;;;;4.53;3.30;;;9.00;49.80;;;;;;6089861;23;20175;-92
2022/03/07 12:27:38;;;;;;;5.50;2.70;;;9.00;49.60;;;;;;6087427;23;20155;-92
2022/03/07 12:30:09;;;;;;;4.40;3.17;;;8.80;48.80;;;;;;6079260;23;20710;-92
2022/03/07 12:32:40;;;;;;;6.60;2.90;;;8.80;48.30;;;;;;6083036;23;20166;-93